sensor_id;sensor_type;location;lat;lon;timestamp;temperature;humidity
9201;DHT22;4635;48.686;9.008;2023-08-30T00:14:58;12.50;29.50
9201;DHT22;4635;48.686;9.008;2023-08-30T00:17:37;12.40;99.90
9201;DHT22;4635;48.686;9.008;2023-08-30T00:20:36;12.40;99.90
9201;DHT22;4635;48.686;9.008;2023-08-30T00:23:21;12.40;99.90
9201;DHT22;4635;48.686;9.008;2023-08-30T00:26:02;12.40;99.90
9201;DHT22;4635;48.686;9.008;2023-08-30T00:28:46;12.40;99.90
9201;DHT22;4635;48.686;9.008;2023-08-30T00:34:29;12.30;99.90
9201;DHT22;4635;48.686;9.008;2023-08-30T00:37:13;12.30;99.90
9201;DHT22;4635;48.686;9.008;2023-08-30T00:39:54;12.30;99.90
9201;DHT22;4635;48.686;9.008;2023-08-30T00:42:35;12.30;99.90
9201;DHT22;4635;48.686;9.008;2023-08-30T00:45:16;12.30;99.90
9201;DHT22;4635;48.686;9.008;2023-08-30T00:47:58;12.30;99.90
9201;DHT22;4635;48.686;9.008;2023-08-30T00:50:47;12.30;99.90
9201;DHT22;4635;48.686;9.008;2023-08-30T00:53:15;12.30;99.90
9201;DHT22;4635;48.686;9.008;2023-08-30T00:55:49;12.30;99.90
9201;DHT22;4635;48.686;9.008;2023-08-30T00:58:30;12.30;99.90
9201;DHT22;4635;48.686;9.008;2023-08-30T01:01:11;12.40;99.90
9201;DHT22;4635;48.686;9.008;2023-08-30T01:03:52;12.30;99.90
9201;DHT22;4635;48.686;9.008;2023-08-30T01:41:46;12.20;99.90
9201;DHT22;4635;48.686;9.008;2023-08-30T01:44:28;12.10;99.90
9201;DHT22;4635;48.686;9.008;2023-08-30T01:47:11;12.10;99.90
9201;DHT22;4635;48.686;9.008;2023-08-30T01:49:54;12.00;99.90
9201;DHT22;4635;48.686;9.008;2023-08-30T01:52:36;12.00;99.90
9201;DHT22;4635;48.686;9.008;2023-08-30T01:55:17;12.00;99.90
9201;DHT22;4635;48.686;9.008;2023-08-30T02:18:37;11.90;1.00
9201;DHT22;4635;48.686;9.008;2023-08-30T02:21:21;11.80;1.00
9201;DHT22;4635;48.686;9.008;2023-08-30T02:24:03;11.80;1.00
9201;DHT22;4635;48.686;9.008;2023-08-30T02:26:44;11.80;1.00
9201;DHT22;4635;48.686;9.008;2023-08-30T02:29:25;11.70;1.00
9201;DHT22;4635;48.686;9.008;2023-08-30T02:32:06;11.70;1.00
9201;DHT22;4635;48.686;9.008;2023-08-30T02:34:51;11.70;1.00
9201;DHT22;4635;48.686;9.008;2023-08-30T02:37:32;11.60;1.00
9201;DHT22;4635;48.686;9.008;2023-08-30T02:40:16;11.60;1.00
9201;DHT22;4635;48.686;9.008;2023-08-30T02:42:57;11.60;1.00
9201;DHT22;4635;48.686;9.008;2023-08-30T02:45:26;11.60;1.00
9201;DHT22;4635;48.686;9.008;2023-08-30T02:48:23;11.50;1.00
9201;DHT22;4635;48.686;9.008;2023-08-30T03:50:05;11.30;1.00
9201;DHT22;4635;48.686;9.008;2023-08-30T03:52:35;11.30;1.00
9201;DHT22;4635;48.686;9.008;2023-08-30T03:55:04;11.30;1.00
9201;DHT22;4635;48.686;9.008;2023-08-30T03:57:31;11.40;1.00
9201;DHT22;4635;48.686;9.008;2023-08-30T04:00:04;11.40;1.00
9201;DHT22;4635;48.686;9.008;2023-08-30T04:02:49;11.40;1.00
9201;DHT22;4635;48.686;9.008;2023-08-30T04:05:42;11.50;1.00
9201;DHT22;4635;48.686;9.008;2023-08-30T04:08:10;11.60;1.00
9201;DHT22;4635;48.686;9.008;2023-08-30T04:10:38;11.60;1.00
9201;DHT22;4635;48.686;9.008;2023-08-30T04:13:07;11.50;1.00
9201;DHT22;4635;48.686;9.008;2023-08-30T04:15:35;11.50;1.00
9201;DHT22;4635;48.686;9.008;2023-08-30T04:18:03;11.50;1.00
9201;DHT22;4635;48.686;9.008;2023-08-30T04:20:31;11.50;1.00
9201;DHT22;4635;48.686;9.008;2023-08-30T04:25:52;11.50;99.90
9201;DHT22;4635;48.686;9.008;2023-08-30T04:28:19;11.50;99.90
9201;DHT22;4635;48.686;9.008;2023-08-30T04:31:08;11.50;99.90
9201;DHT22;4635;48.686;9.008;2023-08-30T04:33:43;11.60;99.90
9201;DHT22;4635;48.686;9.008;2023-08-30T04:36:21;11.60;99.90
9201;DHT22;4635;48.686;9.008;2023-08-30T04:38:50;11.60;99.90
9201;DHT22;4635;48.686;9.008;2023-08-30T04:44:31;11.60;99.90
9201;DHT22;4635;48.686;9.008;2023-08-30T04:46:58;11.60;99.90
9201;DHT22;4635;48.686;9.008;2023-08-30T04:49:31;11.60;99.90
9201;DHT22;4635;48.686;9.008;2023-08-30T04:51:58;11.60;99.90
9201;DHT22;4635;48.686;9.008;2023-08-30T04:54:38;11.60;99.90
9201;DHT22;4635;48.686;9.008;2023-08-30T05:08:54;11.70;99.90
9201;DHT22;4635;48.686;9.008;2023-08-30T05:11:30;11.60;99.90
9201;DHT22;4635;48.686;9.008;2023-08-30T05:13:58;11.60;99.90
9201;DHT22;4635;48.686;9.008;2023-08-30T05:16:27;11.60;99.90
9201;DHT22;4635;48.686;9.008;2023-08-30T05:19:08;11.60;99.90
9201;DHT22;4635;48.686;9.008;2023-08-30T05:21:41;11.60;99.90
9201;DHT22;4635;48.686;9.008;2023-08-30T05:24:26;11.60;99.90
9201;DHT22;4635;48.686;9.008;2023-08-30T05:26:55;11.70;99.90
9201;DHT22;4635;48.686;9.008;2023-08-30T05:29:34;11.80;99.90
9201;DHT22;4635;48.686;9.008;2023-08-30T05:32:30;11.80;99.90
9201;DHT22;4635;48.686;9.008;2023-08-30T05:35:15;11.90;8.30
9201;DHT22;4635;48.686;9.008;2023-08-30T05:38:01;12.00;1.00
9201;DHT22;4635;48.686;9.008;2023-08-30T05:49:46;12.10;1.00
9201;DHT22;4635;48.686;9.008;2023-08-30T05:55:15;12.30;1.00
9201;DHT22;4635;48.686;9.008;2023-08-30T06:01:01;12.30;1.00
9201;DHT22;4635;48.686;9.008;2023-08-30T06:04:08;12.30;1.00
9201;DHT22;4635;48.686;9.008;2023-08-30T06:06:38;12.30;1.00
9201;DHT22;4635;48.686;9.008;2023-08-30T07:13:19;12.90;99.90
9201;DHT22;4635;48.686;9.008;2023-08-30T07:26:48;13.30;99.90
9201;DHT22;4635;48.686;9.008;2023-08-30T09:37:20;20.30;1.00
9201;DHT22;4635;48.686;9.008;2023-08-30T09:39:59;20.60;1.00
9201;DHT22;4635;48.686;9.008;2023-08-30T09:42:58;20.90;1.00
9201;DHT22;4635;48.686;9.008;2023-08-30T09:45:44;22.00;1.00
9201;DHT22;4635;48.686;9.008;2023-08-30T15:27:39;18.80;1.00
9201;DHT22;4635;48.686;9.008;2023-08-30T17:33:12;17.50;99.90
9201;DHT22;4635;48.686;9.008;2023-08-30T17:36:00;17.60;99.90
9201;DHT22;4635;48.686;9.008;2023-08-30T17:38:41;17.50;99.90
9201;DHT22;4635;48.686;9.008;2023-08-30T17:41:46;17.20;99.90
9201;DHT22;4635;48.686;9.008;2023-08-30T17:44:18;17.30;99.90
9201;DHT22;4635;48.686;9.008;2023-08-30T18:21:57;16.20;99.90
9201;DHT22;4635;48.686;9.008;2023-08-30T18:24:24;16.10;99.90
9201;DHT22;4635;48.686;9.008;2023-08-30T18:27:09;16.00;99.90
9201;DHT22;4635;48.686;9.008;2023-08-30T18:29:43;16.00;99.90
9201;DHT22;4635;48.686;9.008;2023-08-30T18:32:30;16.00;99.90
9201;DHT22;4635;48.686;9.008;2023-08-30T18:35:37;15.90;99.90
9201;DHT22;4635;48.686;9.008;2023-08-30T18:41:22;16.00;99.90
9201;DHT22;4635;48.686;9.008;2023-08-30T18:44:19;15.90;99.90
9201;DHT22;4635;48.686;9.008;2023-08-30T18:47:16;15.90;99.90
9201;DHT22;4635;48.686;9.008;2023-08-30T18:50:00;15.90;99.90
9201;DHT22;4635;48.686;9.008;2023-08-30T18:52:41;15.90;99.90
9201;DHT22;4635;48.686;9.008;2023-08-30T18:55:12;15.90;99.90
9201;DHT22;4635;48.686;9.008;2023-08-30T18:57:55;15.80;99.90
9201;DHT22;4635;48.686;9.008;2023-08-30T19:00:24;15.80;99.90
9201;DHT22;4635;48.686;9.008;2023-08-30T19:05:27;15.80;99.90
9201;DHT22;4635;48.686;9.008;2023-08-30T19:11:27;15.70;99.90
9201;DHT22;4635;48.686;9.008;2023-08-30T19:14:19;15.80;99.90
9201;DHT22;4635;48.686;9.008;2023-08-30T19:17:00;15.80;99.90
9201;DHT22;4635;48.686;9.008;2023-08-30T19:19:27;15.90;99.90
9201;DHT22;4635;48.686;9.008;2023-08-30T19:22:03;15.90;99.90
9201;DHT22;4635;48.686;9.008;2023-08-30T19:33:24;16.00;99.90
9201;DHT22;4635;48.686;9.008;2023-08-30T19:36:05;15.90;99.90
9201;DHT22;4635;48.686;9.008;2023-08-30T19:38:39;15.90;99.90
9201;DHT22;4635;48.686;9.008;2023-08-30T19:41:10;15.80;99.90
9201;DHT22;4635;48.686;9.008;2023-08-30T19:46:54;16.00;99.90
9201;DHT22;4635;48.686;9.008;2023-08-30T19:52:41;15.90;99.90
9201;DHT22;4635;48.686;9.008;2023-08-30T19:55:08;15.80;99.90
9201;DHT22;4635;48.686;9.008;2023-08-30T19:57:35;15.80;99.90
9201;DHT22;4635;48.686;9.008;2023-08-30T20:00:05;15.80;99.90
9201;DHT22;4635;48.686;9.008;2023-08-30T20:02:42;15.80;99.90
9201;DHT22;4635;48.686;9.008;2023-08-30T20:05:16;15.80;99.90
9201;DHT22;4635;48.686;9.008;2023-08-30T20:14:02;15.80;99.90
9201;DHT22;4635;48.686;9.008;2023-08-30T20:16:43;15.80;99.90
9201;DHT22;4635;48.686;9.008;2023-08-30T20:19:24;15.80;99.90
9201;DHT22;4635;48.686;9.008;2023-08-30T20:24:31;15.80;99.90
9201;DHT22;4635;48.686;9.008;2023-08-30T20:27:05;15.70;99.90
9201;DHT22;4635;48.686;9.008;2023-08-30T20:52:59;15.70;99.90
9201;DHT22;4635;48.686;9.008;2023-08-30T20:55:29;15.70;1.00
9201;DHT22;4635;48.686;9.008;2023-08-30T20:58:03;15.60;99.90
9201;DHT22;4635;48.686;9.008;2023-08-30T21:00:44;15.50;1.00
9201;DHT22;4635;48.686;9.008;2023-08-30T21:03:34;15.40;1.00
9201;DHT22;4635;48.686;9.008;2023-08-30T21:06:15;15.20;1.00
9201;DHT22;4635;48.686;9.008;2023-08-30T21:11:50;15.00;1.00
9201;DHT22;4635;48.686;9.008;2023-08-30T21:14:48;15.00;1.00
9201;DHT22;4635;48.686;9.008;2023-08-30T21:17:49;14.90;1.00
9201;DHT22;4635;48.686;9.008;2023-08-30T21:20:31;14.80;1.00
9201;DHT22;4635;48.686;9.008;2023-08-30T21:23:44;14.80;1.00
9201;DHT22;4635;48.686;9.008;2023-08-30T21:26:37;14.80;1.00
9201;DHT22;4635;48.686;9.008;2023-08-30T21:58:32;13.50;1.00
9201;DHT22;4635;48.686;9.008;2023-08-30T22:01:02;13.40;1.00
9201;DHT22;4635;48.686;9.008;2023-08-30T22:03:43;13.30;1.00
9201;DHT22;4635;48.686;9.008;2023-08-30T22:06:11;13.20;1.00
9201;DHT22;4635;48.686;9.008;2023-08-30T22:08:52;13.20;1.00
9201;DHT22;4635;48.686;9.008;2023-08-30T22:11:23;13.10;1.00
9201;DHT22;4635;48.686;9.008;2023-08-30T22:16:38;13.00;1.00
9201;DHT22;4635;48.686;9.008;2023-08-30T22:19:07;13.00;1.00
9201;DHT22;4635;48.686;9.008;2023-08-30T22:21:40;12.90;1.00
9201;DHT22;4635;48.686;9.008;2023-08-30T22:24:10;12.90;1.00
9201;DHT22;4635;48.686;9.008;2023-08-30T22:26:52;12.90;68.10
9201;DHT22;4635;48.686;9.008;2023-08-30T22:29:20;12.80;99.90
9201;DHT22;4635;48.686;9.008;2023-08-30T22:34:45;12.80;99.90
9201;DHT22;4635;48.686;9.008;2023-08-30T22:37:15;12.80;99.90
9201;DHT22;4635;48.686;9.008;2023-08-30T22:39:57;12.80;99.90
9201;DHT22;4635;48.686;9.008;2023-08-30T22:42:24;12.80;99.90
9201;DHT22;4635;48.686;9.008;2023-08-30T22:44:55;12.90;99.90
9201;DHT22;4635;48.686;9.008;2023-08-30T22:47:22;12.90;99.90
9201;DHT22;4635;48.686;9.008;2023-08-30T22:49:53;12.90;99.90
9201;DHT22;4635;48.686;9.008;2023-08-30T22:52:21;12.90;99.90
9201;DHT22;4635;48.686;9.008;2023-08-30T22:54:52;12.90;1.00
9201;DHT22;4635;48.686;9.008;2023-08-30T22:57:19;12.90;1.00
9201;DHT22;4635;48.686;9.008;2023-08-30T22:59:46;12.90;1.00
9201;DHT22;4635;48.686;9.008;2023-08-30T23:02:14;12.90;1.00
9201;DHT22;4635;48.686;9.008;2023-08-30T23:04:42;12.90;1.00
9201;DHT22;4635;48.686;9.008;2023-08-30T23:07:10;12.90;1.00
9201;DHT22;4635;48.686;9.008;2023-08-30T23:09:38;12.80;1.00
9201;DHT22;4635;48.686;9.008;2023-08-30T23:12:05;12.80;1.00
9201;DHT22;4635;48.686;9.008;2023-08-30T23:14:34;12.80;1.00
9201;DHT22;4635;48.686;9.008;2023-08-30T23:17:01;12.80;1.00
9201;DHT22;4635;48.686;9.008;2023-08-30T23:19:28;12.80;1.00
9201;DHT22;4635;48.686;9.008;2023-08-30T23:21:56;12.80;1.00
9201;DHT22;4635;48.686;9.008;2023-08-30T23:24:28;12.80;1.00
9201;DHT22;4635;48.686;9.008;2023-08-30T23:26:57;12.70;1.00
9201;DHT22;4635;48.686;9.008;2023-08-30T23:29:24;12.70;1.00
9201;DHT22;4635;48.686;9.008;2023-08-30T23:31:51;12.70;1.00
9201;DHT22;4635;48.686;9.008;2023-08-30T23:34:19;12.70;1.00
9201;DHT22;4635;48.686;9.008;2023-08-30T23:36:48;12.70;1.00
9201;DHT22;4635;48.686;9.008;2023-08-30T23:39:17;12.60;1.00
9201;DHT22;4635;48.686;9.008;2023-08-30T23:41:46;12.60;1.00
9201;DHT22;4635;48.686;9.008;2023-08-30T23:44:15;12.50;1.00
9201;DHT22;4635;48.686;9.008;2023-08-30T23:46:42;12.50;1.00
9201;DHT22;4635;48.686;9.008;2023-08-30T23:49:11;12.60;1.00
9201;DHT22;4635;48.686;9.008;2023-08-30T23:51:39;12.50;1.00
9201;DHT22;4635;48.686;9.008;2023-08-30T23:54:07;12.40;1.00
9201;DHT22;4635;48.686;9.008;2023-08-30T23:56:35;12.40;1.00
9201;DHT22;4635;48.686;9.008;2023-08-30T23:59:05;12.40;1.00
